Time;durP1;ratioP1;P1;durP2;ratioP2;P2;SDS_P1;SDS_P2;PMS_P1;PMS_P2;Temp;Humidity;BMP_temperature;BMP_pressure;BME280_temperature;BME280_humidity;BME280_pressure;Samples;Min_cycle;Max_cycle;Signal;HPM_P1;HPM_P2
2023/04/21 00:01:00;;;;;;;0.00;0.00;;;8.50;99.90;;;;;;4952680;28;20030;-73
2023/04/21 00:03:27;;;;;;;0.00;0.00;;;8.50;99.90;;;;;;4971928;28;20034;-73
2023/04/21 00:05:55;;;;;;;0.00;0.00;;;8.50;99.90;;;;;;4973346;28;20027;-73
2023/04/21 00:08:21;;;;;;;0.00;0.00;;;8.50;99.90;;;;;;4969692;28;20038;-74
2023/04/21 00:10:47;;;;;;;0.30;0.30;;;8.40;99.90;;;;;;4970131;28;20027;-73
2023/04/21 00:13:13;;;;;;;0.00;0.00;;;8.40;99.90;;;;;;4969079;28;20712;-74
2023/04/21 00:15:43;;;;;;;0.00;0.00;;;8.30;99.90;;;;;;4967041;28;20027;-76
2023/04/21 00:18:09;;;;;;;0.00;0.00;;;8.30;99.90;;;;;;4965652;28;20134;-73
2023/04/21 00:20:35;;;;;;;0.00;0.00;;;8.20;99.90;;;;;;4964658;28;20051;-73
2023/04/21 00:23:01;;;;;;;0.00;0.00;;;8.20;99.90;;;;;;4966095;28;20031;-73
2023/04/21 00:25:27;;;;;;;0.10;0.10;;;8.20;99.90;;;;;;4965591;28;20482;-73
2023/04/21 00:27:52;;;;;;;0.00;0.00;;;8.00;99.90;;;;;;4965527;28;20200;-73
2023/04/21 00:30:18;;;;;;;0.00;0.00;;;8.00;99.90;;;;;;4965674;28;20487;-73
2023/04/21 00:32:44;;;;;;;0.00;0.00;;;8.00;99.90;;;;;;4964677;28;20054;-74
2023/04/21 00:35:10;;;;;;;0.10;0.10;;;7.90;99.90;;;;;;4964517;28;20031;-73
2023/04/21 00:37:36;;;;;;;0.03;0.03;;;7.80;99.90;;;;;;4965633;28;20034;-72
2023/04/21 00:40:03;;;;;;;0.00;0.00;;;7.80;99.90;;;;;;4967688;28;20031;-73
2023/04/21 00:42:29;;;;;;;0.00;0.00;;;7.70;99.90;;;;;;4966613;28;20035;-73
2023/04/21 00:44:55;;;;;;;0.10;0.10;;;7.70;99.90;;;;;;4970593;28;20276;-73
2023/04/21 00:47:21;;;;;;;0.00;0.00;;;7.70;99.90;;;;;;4969814;28;20038;-73
2023/04/21 00:49:48;;;;;;;0.00;0.00;;;7.60;99.90;;;;;;4964234;28;20031;-73
2023/04/21 00:52:17;;;;;;;0.00;0.00;;;7.70;99.90;;;;;;4967526;28;20237;-73
2023/04/21 00:54:43;;;;;;;0.03;0.03;;;7.60;99.90;;;;;;4970228;28;20212;-73
2023/04/21 00:57:12;;;;;;;0.00;0.00;;;7.50;99.90;;;;;;4966208;28;20284;-73
2023/04/21 00:59:38;;;;;;;0.47;0.47;;;7.40;99.90;;;;;;4948200;28;20039;-73
2023/04/21 01:02:03;;;;;;;0.00;0.00;;;7.40;99.90;;;;;;4964072;28;20206;-73
2023/04/21 01:04:37;;;;;;;0.00;0.00;;;7.40;99.90;;;;;;4964981;28;20403;-74
2023/04/21 01:07:03;;;;;;;;;;;7.40;99.90;;;;;;4947982;28;20228;-74
2023/04/21 01:09:29;;;;;;;0.00;0.00;;;7.20;99.90;;;;;;4966023;28;19929;-73
2023/04/21 01:12:11;;;;;;;0.10;0.10;;;7.30;99.90;;;;;;4948943;28;20023;-73
2023/04/21 01:14:39;;;;;;;0.10;0.10;;;7.60;99.90;;;;;;4970542;28;20359;-74
2023/04/21 01:17:06;;;;;;;0.00;0.00;;;8.50;99.90;;;;;;4968327;28;20312;-72
2023/04/21 01:19:38;;;;;;;0.00;0.00;;;7.20;99.90;;;;;;4929053;28;20240;-74
2023/04/21 01:22:04;;;;;;;0.00;0.00;;;;;;;;;;4945289;28;20037;-74
2023/04/21 01:24:41;;;;;;;0.00;0.00;;;7.10;99.90;;;;;;4946813;28;20392;-73
2023/04/21 01:27:15;;;;;;;0.05;0.05;;;7.10;99.90;;;;;;4964996;28;20027;-74
2023/04/21 01:29:42;;;;;;;0.00;0.00;;;7.10;99.90;;;;;;4964384;28;20637;-73
2023/04/21 01:32:11;;;;;;;0.00;0.00;;;7.10;99.90;;;;;;4963793;28;20030;-75
2023/04/21 01:34:39;;;;;;;0.05;0.05;;;7.00;99.90;;;;;;4963590;28;20042;-73
2023/04/21 01:37:13;;;;;;;0.00;0.00;;;7.00;99.90;;;;;;4960701;28;20364;-74
2023/04/21 01:39:45;;;;;;;0.10;0.10;;;6.30;99.90;;;;;;4960142;28;20023;-73
2023/04/21 01:42:12;;;;;;;3.03;2.92;;;7.00;99.90;;;;;;4960586;28;20083;-73
2023/04/21 01:44:38;;;;;;;0.00;0.00;;;7.00;99.90;;;;;;4963223;28;20034;-74
2023/04/21 01:47:04;;;;;;;0.00;0.00;;;7.00;99.90;;;;;;4963444;28;20037;-73
2023/04/21 01:49:29;;;;;;;0.10;0.10;;;7.00;99.90;;;;;;4963338;28;20256;-73
2023/04/21 01:51:55;;;;;;;0.00;0.00;;;7.00;99.90;;;;;;4965538;28;20441;-72
2023/04/21 01:54:21;;;;;;;0.57;0.55;;;7.00;99.90;;;;;;4963522;28;20026;-73
2023/04/21 01:56:47;;;;;;;0.10;0.10;;;7.00;99.90;;;;;;4962793;28;20394;-73
2023/04/21 01:59:12;;;;;;;0.00;0.00;;;7.00;99.90;;;;;;4963698;28;20026;-74
2023/04/21 02:01:38;;;;;;;0.00;0.00;;;6.90;99.90;;;;;;4961874;28;20232;-73
2023/04/21 02:04:05;;;;;;;0.32;0.32;;;6.90;99.90;;;;;;4962270;28;20410;-73
2023/04/21 02:06:30;;;;;;;0.98;0.98;;;6.90;99.90;;;;;;4963134;28;20474;-73
2023/04/21 02:08:57;;;;;;;0.00;0.00;;;6.90;99.90;;;;;;4943632;28;20239;-73
2023/04/21 02:11:24;;;;;;;0.00;0.00;;;6.90;99.90;;;;;;4944807;28;20230;-73
2023/04/21 02:13:54;;;;;;;0.00;0.00;;;6.80;99.90;;;;;;4961332;28;20568;-73
2023/04/21 02:16:24;;;;;;;0.00;0.00;;;6.80;99.90;;;;;;4945393;28;20026;-73
2023/04/21 02:18:51;;;;;;;7.80;7.32;;;6.70;99.90;;;;;;4961646;28;20034;-73
2023/04/21 02:21:18;;;;;;;0.10;0.10;;;6.60;99.90;;;;;;4963520;28;20094;-73
2023/04/21 02:23:44;;;;;;;0.10;0.10;;;6.70;99.90;;;;;;4965175;28;20137;-73
2023/04/21 02:26:10;;;;;;;0.00;0.00;;;6.60;99.90;;;;;;4965269;28;20352;-73
2023/04/21 02:28:36;;;;;;;0.05;0.05;;;6.50;99.90;;;;;;4963242;28;20341;-73
2023/04/21 02:31:01;;;;;;;0.10;0.10;;;6.50;99.90;;;;;;4963377;28;20027;-74
2023/04/21 02:33:27;;;;;;;0.00;0.00;;;6.40;99.90;;;;;;4963123;28;20317;-72
2023/04/21 02:35:53;;;;;;;6.63;3.42;;;6.50;99.90;;;;;;4964777;28;20126;-74
2023/04/21 02:38:18;;;;;;;0.05;0.05;;;6.50;99.90;;;;;;4968513;28;20034;-73
2023/04/21 02:40:44;;;;;;;0.00;0.00;;;6.40;99.90;;;;;;4968917;28;20026;-74
2023/04/21 02:43:11;;;;;;;0.00;0.00;;;4.90;99.90;;;;;;4954243;28;20030;-73
2023/04/21 02:45:37;;;;;;;0.10;0.10;;;6.30;99.90;;;;;;4973228;28;20079;-74
2023/04/21 02:48:03;;;;;;;0.10;0.10;;;6.30;99.90;;;;;;4968118;28;20094;-73
2023/04/21 02:50:28;;;;;;;0.10;0.10;;;6.30;99.90;;;;;;4967779;28;20031;-74
2023/04/21 02:52:54;;;;;;;0.10;0.10;;;6.30;99.90;;;;;;4967206;28;20035;-74
2023/04/21 02:55:21;;;;;;;0.08;0.08;;;6.30;99.90;;;;;;4965396;28;20328;-73
2023/04/21 02:57:47;;;;;;;0.00;0.00;;;6.30;99.90;;;;;;4965272;28;20097;-73
2023/04/21 03:00:13;;;;;;;0.00;0.00;;;6.30;99.90;;;;;;4946811;28;20038;-74
2023/04/21 03:02:40;;;;;;;0.10;0.10;;;6.30;99.90;;;;;;4964366;28;20033;-73
2023/04/21 03:05:06;;;;;;;0.10;0.10;;;6.20;99.90;;;;;;4945130;28;20038;-73
2023/04/21 03:07:32;;;;;;;0.10;0.10;;;6.20;99.90;;;;;;4965263;28;20037;-72
2023/04/21 03:09:58;;;;;;;0.00;0.00;;;6.20;99.90;;;;;;4947475;28;20419;-73
2023/04/21 03:12:23;;;;;;;0.10;0.10;;;6.10;99.90;;;;;;4948785;28;20023;-73
2023/04/21 03:14:49;;;;;;;0.00;0.00;;;6.10;99.90;;;;;;4966735;28;20084;-73
2023/04/21 03:17:16;;;;;;;0.10;0.10;;;6.00;99.90;;;;;;4966624;28;20258;-74
2023/04/21 03:19:42;;;;;;;0.03;0.03;;;6.00;99.90;;;;;;4965922;28;20087;-74
2023/04/21 03:22:09;;;;;;;0.00;0.00;;;5.90;99.90;;;;;;4965955;28;20092;-74
2023/04/21 03:24:35;;;;;;;0.13;0.13;;;6.00;99.90;;;;;;4960209;28;20034;-73
2023/04/21 03:27:01;;;;;;;0.10;0.10;;;6.00;99.90;;;;;;4947682;28;20045;-73
2023/04/21 03:29:27;;;;;;;0.00;0.00;;;6.00;99.90;;;;;;4964406;28;20760;-73
2023/04/21 03:31:53;;;;;;;0.10;0.10;;;5.90;99.90;;;;;;4965393;28;20092;-73
2023/04/21 03:34:18;;;;;;;0.00;0.00;;;6.00;99.90;;;;;;4969890;28;20059;-74
2023/04/21 03:36:44;;;;;;;0.08;0.08;;;6.00;99.90;;;;;;4967053;28;20117;-73
2023/04/21 03:39:15;;;;;;;9.45;8.98;;;6.00;99.90;;;;;;4966835;28;20033;-73
2023/04/21 03:41:41;;;;;;;98.60;92.60;;;6.00;99.90;;;;;;4947778;28;20522;-73
2023/04/21 03:44:06;;;;;;;0.05;0.05;;;6.00;99.90;;;;;;4965026;28;20110;-75
2023/04/21 03:46:32;;;;;;;0.00;0.00;;;6.00;99.90;;;;;;4964671;28;20019;-73
2023/04/21 03:48:58;;;;;;;0.15;0.15;;;6.10;99.90;;;;;;4963217;28;20070;-73
2023/04/21 03:51:23;;;;;;;0.10;0.10;;;6.00;99.90;;;;;;4965135;28;20042;-73
2023/04/21 03:53:49;;;;;;;0.00;0.00;;;6.10;99.90;;;;;;4964728;28;20624;-71
2023/04/21 03:56:15;;;;;;;0.00;0.00;;;6.00;99.90;;;;;;4965980;28;20031;-73
2023/04/21 03:58:41;;;;;;;0.00;0.00;;;6.00;99.90;;;;;;4967166;28;20058;-73
2023/04/21 04:01:07;;;;;;;0.10;0.10;;;5.90;99.90;;;;;;4963980;28;20023;-73
2023/04/21 04:03:33;;;;;;;0.10;0.10;;;5.80;99.90;;;;;;4946401;28;20524;-72
2023/04/21 04:05:59;;;;;;;0.47;0.47;;;5.70;99.90;;;;;;4964196;28;20109;-73
2023/04/21 04:08:25;;;;;;;0.10;0.10;;;5.70;99.90;;;;;;4967056;28;20069;-73
2023/04/21 04:10:50;;;;;;;0.00;0.00;;;5.60;99.90;;;;;;4967294;28;20536;-73
2023/04/21 04:13:17;;;;;;;2.17;1.45;;;5.50;99.90;;;;;;4958082;28;20086;-73
2023/04/21 04:15:42;;;;;;;0.00;0.00;;;5.50;99.90;;;;;;4974925;28;20086;-73
2023/04/21 04:18:08;;;;;;;0.10;0.10;;;5.40;99.90;;;;;;4973283;28;20254;-73
2023/04/21 04:20:35;;;;;;;0.10;0.10;;;5.40;99.90;;;;;;4967686;28;20624;-72
2023/04/21 04:23:01;;;;;;;0.10;0.10;;;5.10;99.90;;;;;;4969112;28;20027;-73
2023/04/21 04:25:28;;;;;;;0.00;0.00;;;5.40;99.90;;;;;;4966358;28;20037;-73
2023/04/21 04:27:54;;;;;;;0.00;0.00;;;5.40;99.90;;;;;;4968274;28;20035;-73
2023/04/21 04:30:20;;;;;;;0.00;0.00;;;5.40;99.90;;;;;;4967085;28;20144;-73
2023/04/21 04:32:46;;;;;;;0.08;0.08;;;5.50;99.90;;;;;;4963834;28;20477;-73
2023/04/21 04:35:12;;;;;;;0.10;0.10;;;5.40;99.90;;;;;;4965545;28;20098;-72
2023/04/21 04:37:40;;;;;;;0.10;0.10;;;5.40;99.90;;;;;;4963510;28;20031;-73
2023/04/21 04:40:13;;;;;;;0.00;0.00;;;5.40;99.90;;;;;;4964594;28;20027;-74
2023/04/21 04:42:39;;;;;;;0.10;0.10;;;5.40;99.90;;;;;;4965130;28;20510;-72
2023/04/21 04:45:10;;;;;;;0.10;0.10;;;5.50;99.90;;;;;;4966069;28;20130;-73
2023/04/21 04:47:36;;;;;;;0.10;0.10;;;5.50;99.90;;;;;;4971280;28;20039;-74
2023/04/21 04:50:04;;;;;;;0.10;0.10;;;5.50;99.90;;;;;;4974035;28;20034;-73
2023/04/21 04:52:30;;;;;;;0.45;0.45;;;5.50;99.90;;;;;;4964774;28;20031;-73
2023/04/21 04:54:56;;;;;;;0.10;0.10;;;5.50;99.90;;;;;;4945143;28;20228;-72
2023/04/21 04:57:21;;;;;;;0.10;0.10;;;5.60;99.90;;;;;;4963336;28;20569;-73
2023/04/21 04:59:47;;;;;;;0.10;0.10;;;5.60;99.90;;;;;;4963047;28;20395;-73
2023/04/21 05:02:13;;;;;;;0.10;0.10;;;5.70;99.90;;;;;;4962110;28;20284;-73
2023/04/21 05:04:39;;;;;;;0.00;0.00;;;5.70;99.90;;;;;;4962968;28;20050;-73
2023/04/21 05:07:06;;;;;;;0.10;0.10;;;5.80;99.90;;;;;;4963815;28;20061;-73
2023/04/21 05:09:33;;;;;;;0.00;0.00;;;5.90;99.90;;;;;;4966568;28;20101;-74
2023/04/21 05:12:00;;;;;;;0.10;0.10;;;5.90;99.90;;;;;;4968357;28;20019;-73
2023/04/21 05:14:27;;;;;;;0.00;0.00;;;6.00;99.90;;;;;;4963875;28;20097;-73
2023/04/21 05:16:54;;;;;;;1.80;1.75;;;6.10;99.90;;;;;;4963559;28;20015;-73
2023/04/21 05:19:20;;;;;;;0.00;0.00;;;6.10;99.90;;;;;;4963398;28;20126;-73
2023/04/21 05:21:45;;;;;;;0.10;0.10;;;6.20;99.90;;;;;;4965573;28;20066;-73
2023/04/21 05:24:11;;;;;;;0.20;0.20;;;6.30;99.90;;;;;;4965047;28;20034;-74
2023/04/21 05:26:37;;;;;;;0.00;0.00;;;6.40;99.90;;;;;;4967127;28;20078;-74
2023/04/21 05:29:03;;;;;;;0.00;0.00;;;6.50;99.90;;;;;;4963798;28;20034;-73
2023/04/21 05:31:28;;;;;;;0.03;0.03;;;6.60;99.90;;;;;;4964471;28;20104;-72
2023/04/21 05:33:54;;;;;;;0.00;0.00;;;6.70;99.90;;;;;;4964151;28;20439;-72
2023/04/21 05:36:20;;;;;;;0.00;0.00;;;6.80;99.90;;;;;;4962540;28;20038;-73
2023/04/21 05:38:46;;;;;;;0.00;0.00;;;6.90;99.90;;;;;;4962698;28;20038;-72
2023/04/21 05:41:12;;;;;;;1.77;1.77;;;7.00;99.90;;;;;;4962810;28;20110;-73
2023/04/21 05:43:37;;;;;;;0.10;0.10;;;7.00;99.90;;;;;;4963146;28;20641;-73
2023/04/21 05:46:08;;;;;;;0.00;0.00;;;7.20;99.90;;;;;;4963153;28;20509;-74
2023/04/21 05:48:35;;;;;;;4.38;4.22;;;7.30;99.90;;;;;;4965984;28;20328;-73
2023/04/21 05:51:09;;;;;;;0.00;0.00;;;7.50;99.90;;;;;;4970263;28;20482;-73
2023/04/21 05:53:35;;;;;;;1.98;1.88;;;7.70;99.90;;;;;;4970539;28;20097;-72
2023/04/21 05:56:01;;;;;;;0.00;0.00;;;7.70;99.90;;;;;;4967994;28;20517;-73
2023/04/21 05:58:26;;;;;;;0.00;0.00;;;7.80;99.90;;;;;;4967949;28;20026;-74
2023/04/21 06:00:54;;;;;;;13.25;12.70;;;7.80;99.90;;;;;;4970328;28;20034;-73
2023/04/21 06:03:20;;;;;;;0.00;0.00;;;8.00;99.90;;;;;;4951348;28;20453;-73
2023/04/21 06:05:46;;;;;;;0.00;0.00;;;8.20;99.90;;;;;;4971055;28;20023;-74
2023/04/21 06:08:12;;;;;;;3.50;3.40;;;8.30;99.90;;;;;;4972205;28;20035;-73
2023/04/21 06:10:38;;;;;;;0.00;0.00;;;9.50;99.90;;;;;;4967919;28;20081;-73
2023/04/21 06:13:03;;;;;;;21.92;19.63;;;8.90;99.90;;;;;;4968238;28;20023;-74
2023/04/21 06:15:29;;;;;;;0.10;0.10;;;8.80;99.90;;;;;;4964829;28;20708;-72
2023/04/21 06:17:55;;;;;;;0.22;0.22;;;8.90;99.90;;;;;;4967317;28;20035;-73
2023/04/21 06:20:21;;;;;;;0.08;0.08;;;9.00;99.90;;;;;;4966906;28;20403;-73
2023/04/21 06:22:46;;;;;;;1.25;1.25;;;9.00;99.90;;;;;;4967097;28;20129;-74
2023/04/21 06:25:12;;;;;;;0.10;0.10;;;9.10;99.90;;;;;;4970527;28;20052;-73
2023/04/21 06:27:38;;;;;;;0.08;0.08;;;9.20;99.90;;;;;;4970083;28;20074;-73
2023/04/21 06:30:05;;;;;;;0.10;0.10;;;9.20;99.90;;;;;;4970252;28;20035;-73
2023/04/21 06:32:31;;;;;;;0.10;0.10;;;9.60;99.90;;;;;;4970606;28;20015;-73
2023/04/21 06:34:57;;;;;;;0.20;0.20;;;9.80;99.90;;;;;;4969394;28;20545;-74
2023/04/21 06:37:22;;;;;;;0.10;0.10;;;10.00;99.90;;;;;;4968443;28;20517;-73
2023/04/21 06:39:48;;;;;;;0.20;0.20;;;10.20;99.90;;;;;;4968826;28;20517;-74
2023/04/21 06:42:14;;;;;;;0.10;0.10;;;10.40;99.90;;;;;;4967826;28;20030;-74
2023/04/21 06:44:40;;;;;;;1.50;1.50;;;;;;;;;;4950146;28;20034;-74
2023/04/21 06:47:06;;;;;;;0.10;0.10;;;10.60;99.90;;;;;;4968936;28;20105;-73
2023/04/21 06:49:33;;;;;;;0.17;0.17;;;10.70;99.90;;;;;;4949792;28;20133;-73
2023/04/21 06:51:58;;;;;;;0.10;0.10;;;10.80;99.90;;;;;;4967468;28;20113;-73
2023/04/21 06:54:24;;;;;;;1.58;1.58;;;10.10;99.90;;;;;;4966732;28;20300;-73
2023/04/21 06:56:50;;;;;;;0.38;0.38;;;11.10;99.90;;;;;;4966749;28;20548;-73
2023/04/21 06:59:16;;;;;;;0.63;0.63;;;11.20;99.90;;;;;;4966032;28;20228;-73
2023/04/21 07:01:42;;;;;;;1.83;1.70;;;11.30;99.90;;;;;;4965761;28;20288;-74
2023/04/21 07:04:07;;;;;;;0.10;0.10;;;11.40;99.90;;;;;;4947770;28;20034;-73
2023/04/21 07:06:33;;;;;;;0.10;0.10;;;11.60;99.90;;;;;;4965048;28;20099;-73
2023/04/21 07:09:00;;;;;;;0.10;0.10;;;11.60;99.90;;;;;;4965220;28;20045;-79
2023/04/21 07:11:27;;;;;;;0.28;0.28;;;11.60;99.90;;;;;;4966598;28;20541;-76
2023/04/21 07:13:54;;;;;;;0.93;0.93;;;11.90;99.90;;;;;;4965517;28;20038;-82
2023/04/21 07:16:20;;;;;;;0.20;0.20;;;12.20;99.90;;;;;;4948413;28;20027;-74
2023/04/21 07:18:45;;;;;;;0.10;0.10;;;12.30;99.90;;;;;;4965573;28;20101;-84
2023/04/21 07:21:11;;;;;;;0.20;0.20;;;12.40;99.90;;;;;;4966264;28;20340;-78
2023/04/21 07:23:37;;;;;;;0.20;0.20;;;12.60;99.90;;;;;;4966540;28;20027;-77
2023/04/21 07:26:03;;;;;;;0.22;0.22;;;12.50;99.90;;;;;;4965900;28;20042;-74
2023/04/21 07:28:28;;;;;;;0.10;0.10;;;12.80;99.90;;;;;;4963962;28;20039;-74
2023/04/21 07:30:55;;;;;;;0.22;0.22;;;12.60;99.90;;;;;;4962115;28;20062;-73
2023/04/21 07:33:21;;;;;;;0.10;0.10;;;12.60;99.90;;;;;;4962248;28;20046;-73
2023/04/21 07:35:47;;;;;;;0.20;0.20;;;12.90;99.90;;;;;;4962513;28;20489;-74
2023/04/21 07:38:12;;;;;;;0.80;0.80;;;13.00;99.90;;;;;;4962082;28;20093;-74
2023/04/21 07:40:38;;;;;;;0.75;0.75;;;12.90;99.90;;;;;;4961953;28;20043;-74
2023/04/21 07:43:04;;;;;;;2.38;2.28;;;12.80;99.90;;;;;;4961801;28;20351;-74
2023/04/21 07:45:30;;;;;;;0.10;0.10;;;12.80;99.90;;;;;;4961093;28;20328;-75
2023/04/21 07:47:56;;;;;;;0.15;0.15;;;12.60;99.90;;;;;;4960909;28;20055;-74
2023/04/21 07:50:22;;;;;;;0.20;0.20;;;12.50;99.90;;;;;;4961730;28;20035;-73
2023/04/21 07:52:47;;;;;;;0.90;0.90;;;12.40;99.90;;;;;;4945794;28;20026;-74
2023/04/21 07:55:13;;;;;;;0.10;0.10;;;12.30;99.90;;;;;;4965687;28;20218;-74
2023/04/21 07:57:39;;;;;;;0.20;0.20;;;12.20;99.90;;;;;;4965740;28;20094;-76
2023/04/21 08:00:08;;;;;;;0.15;0.15;;;12.10;99.90;;;;;;4965273;28;20325;-75
2023/04/21 08:02:34;;;;;;;0.20;0.20;;;12.00;99.90;;;;;;4966530;28;20047;-75
2023/04/21 08:04:59;;;;;;;0.10;0.10;;;11.90;99.90;;;;;;4966010;28;20050;-76
2023/04/21 08:07:25;;;;;;;0.20;0.20;;;11.90;99.90;;;;;;4963069;28;20288;-74
2023/04/21 08:09:51;;;;;;;0.75;0.75;;;11.80;99.90;;;;;;4962005;28;20105;-80
2023/04/21 08:12:17;;;;;;;0.13;0.13;;;11.90;99.90;;;;;;4961542;28;20050;-71
2023/04/21 08:14:42;;;;;;;0.15;0.15;;;11.90;99.90;;;;;;4944054;28;20063;-73
2023/04/21 08:17:08;;;;;;;0.20;0.20;;;11.90;99.90;;;;;;4943134;28;20035;-76
2023/04/21 08:19:34;;;;;;;0.20;0.20;;;12.00;99.90;;;;;;4961600;28;20557;-73
2023/04/21 08:22:00;;;;;;;3.55;3.35;;;12.10;99.90;;;;;;4961486;28;20022;-72
2023/04/21 08:24:25;;;;;;;0.50;0.50;;;12.10;99.90;;;;;;4962048;28;20019;-77
2023/04/21 08:26:51;;;;;;;3.00;2.47;;;12.30;99.90;;;;;;4961485;28;20536;-77
2023/04/21 08:29:17;;;;;;;0.20;0.20;;;12.70;99.90;;;;;;4960637;28;20434;-73
2023/04/21 08:31:42;;;;;;;0.20;0.20;;;12.90;99.90;;;;;;4960738;28;20118;-73
2023/04/21 08:34:08;;;;;;;0.73;0.73;;;13.10;99.90;;;;;;4960937;28;20018;-75
2023/04/21 08:36:34;;;;;;;0.85;0.85;;;13.30;99.90;;;;;;4961003;28;20026;-74
2023/04/21 08:39:00;;;;;;;0.17;0.17;;;13.70;99.90;;;;;;4960267;28;20030;-74
2023/04/21 08:41:26;;;;;;;1.85;1.80;;;13.90;99.90;;;;;;4960630;28;20706;-74
2023/04/21 08:43:52;;;;;;;0.20;0.20;;;14.20;99.90;;;;;;4960464;28;20121;-75
2023/04/21 08:46:18;;;;;;;0.30;0.30;;;14.50;99.90;;;;;;4960669;28;20749;-74
2023/04/21 08:48:46;;;;;;;0.10;0.10;;;14.90;99.90;;;;;;4960428;28;20046;-77
2023/04/21 08:51:16;;;;;;;0.98;0.98;;;15.10;99.90;;;;;;4960550;28;20106;-83
2023/04/21 08:53:43;;;;;;;0.13;0.13;;;15.20;99.90;;;;;;4960237;28;20065;-74
2023/04/21 08:56:09;;;;;;;0.20;0.20;;;15.50;99.90;;;;;;4960247;28;20023;-77
2023/04/21 08:58:35;;;;;;;1.65;1.55;;;15.70;99.90;;;;;;4959993;28;20019;-73
2023/04/21 09:01:00;;;;;;;0.10;0.10;;;16.00;99.90;;;;;;4960052;28;20488;-83
2023/04/21 09:03:27;;;;;;;0.20;0.20;;;16.00;99.90;;;;;;4960653;28;20018;-73
2023/04/21 09:06:01;;;;;;;0.25;0.25;;;16.30;99.90;;;;;;4943060;28;20026;-84
2023/04/21 09:08:31;;;;;;;0.20;0.20;;;16.50;99.90;;;;;;4959937;28;20038;-73
2023/04/21 09:10:58;;;;;;;0.32;0.32;;;16.50;99.90;;;;;;4959758;28;20022;-78
2023/04/21 09:13:37;;;;;;;1.13;1.10;;;16.60;99.90;;;;;;4960274;28;20027;-81
2023/04/21 09:16:13;;;;;;;0.95;0.95;;;16.70;99.10;;;;;;4960240;28;20204;-71
2023/04/21 09:18:39;;;;;;;0.63;0.63;;;16.80;98.80;;;;;;4959726;28;20027;-74
2023/04/21 09:21:10;;;;;;;0.10;0.10;;;17.10;98.70;;;;;;4959815;28;20117;-75
2023/04/21 09:23:40;;;;;;;0.20;0.20;;;17.20;98.90;;;;;;4959864;28;20034;-74
2023/04/21 09:26:06;;;;;;;0.10;0.10;;;17.10;98.10;;;;;;4960035;28;20022;-72
2023/04/21 09:28:32;;;;;;;0.10;0.10;;;17.30;98.60;;;;;;4959397;28;20031;-72
2023/04/21 09:30:58;;;;;;;0.28;0.28;;;17.70;96.20;;;;;;4959502;28;20713;-76
2023/04/21 09:33:23;;;;;;;0.50;0.50;;;17.70;94.20;;;;;;4959930;28;20106;-72
2023/04/21 09:35:51;;;;;;;0.47;0.47;;;18.00;94.10;;;;;;4960084;28;20513;-74
2023/04/21 09:38:21;;;;;;;0.10;0.10;;;17.90;93.20;;;;;;4959716;28;20630;-75
2023/04/21 09:40:56;;;;;;;0.50;0.50;;;17.60;94.20;;;;;;4960597;28;20030;-71
2023/04/21 09:43:22;;;;;;;1.02;1.00;;;17.40;94.40;;;;;;4944583;28;20644;-72
2023/04/21 09:45:48;;;;;;;4.55;4.13;;;17.40;92.90;;;;;;4963218;28;20015;-75
2023/04/21 09:48:16;;;;;;;0.20;0.20;;;17.40;91.70;;;;;;4963361;28;20069;-73
2023/04/21 09:50:42;;;;;;;0.20;0.20;;;17.80;92.10;;;;;;4962425;28;20026;-72
2023/04/21 09:53:15;;;;;;;0.10;0.10;;;18.20;92.90;;;;;;4961344;28;20264;-71
2023/04/21 09:55:42;;;;;;;0.10;0.10;;;18.60;89.90;;;;;;4961558;28;20019;-79
2023/04/21 09:58:12;;;;;;;0.10;0.10;;;18.70;90.90;;;;;;4960969;28;20300;-73
2023/04/21 10:00:39;;;;;;;0.10;0.10;;;19.10;90.30;;;;;;4942737;28;20019;-71
2023/04/21 10:03:09;;;;;;;1.10;1.10;;;19.60;80.00;;;;;;4959206;28;20255;-73
2023/04/21 10:05:37;;;;;;;0.32;0.32;;;19.60;81.00;;;;;;4959375;28;20610;-72
2023/04/21 10:08:05;;;;;;;0.08;0.08;;;19.80;71.00;;;;;;4959115;28;20027;-73
2023/04/21 10:10:34;;;;;;;0.10;0.10;;;20.10;73.40;;;;;;4959024;28;20007;-73
2023/04/21 10:13:01;;;;;;;0.10;0.10;;;19.70;69.00;;;;;;4958859;28;20018;-78
2023/04/21 10:15:32;;;;;;;0.10;0.10;;;18.20;69.70;;;;;;4958657;28;20023;-76
2023/04/21 10:18:12;;;;;;;0.15;0.15;;;19.60;69.80;;;;;;4959058;28;20034;-72
2023/04/21 10:21:11;;;;;;;2.20;0.80;;;19.70;71.30;;;;;;4959141;28;20062;-81
2023/04/21 10:23:40;;;;;;;0.25;0.25;;;19.90;72.20;;;;;;4941502;28;20030;-74
2023/04/21 10:26:31;;;;;;;0.10;0.10;;;19.70;72.00;;;;;;4958951;28;20023;-74
2023/04/21 10:29:05;;;;;;;0.10;0.10;;;19.60;71.60;;;;;;4958670;28;20093;-74
2023/04/21 10:31:34;;;;;;;0.98;0.98;;;19.70;71.60;;;;;;4959017;28;20477;-81
2023/04/21 10:34:08;;;;;;;0.32;0.32;;;19.60;70.70;;;;;;4958855;28;20011;-73
2023/04/21 10:36:50;;;;;;;0.10;0.10;;;19.60;70.20;;;;;;4958725;28;20031;-80
2023/04/21 10:39:30;;;;;;;0.20;0.20;;;19.70;71.70;;;;;;4941703;28;20019;-72
2023/04/21 10:42:16;;;;;;;1.48;1.48;;;20.10;69.50;;;;;;4958387;28;20023;-75
2023/04/21 10:44:42;;;;;;;0.40;0.40;;;20.40;71.20;;;;;;4958339;28;20023;-73
2023/04/21 10:47:08;;;;;;;0.10;0.10;;;20.20;71.10;;;;;;4958341;28;20659;-73
2023/04/21 10:49:38;;;;;;;1.95;1.83;;;21.20;72.70;;;;;;4958331;28;20042;-72
2023/04/21 10:52:11;;;;;;;0.40;0.40;;;19.60;74.20;;;;;;4958788;28;20026;-73
2023/04/21 10:54:45;;;;;;;0.65;0.65;;;16.70;73.00;;;;;;4958718;28;20019;-78
2023/04/21 10:57:20;;;;;;;0.20;0.20;;;19.00;74.90;;;;;;4958608;28;20030;-75
2023/04/21 10:59:47;;;;;;;0.20;0.20;;;19.10;76.00;;;;;;4958104;28;20027;-77
2023/04/21 11:02:19;;;;;;;0.10;0.10;;;19.20;76.40;;;;;;4958284;28;20651;-71
2023/04/21 11:04:50;;;;;;;0.00;0.00;;;19.60;74.70;;;;;;4962288;28;20636;-76
2023/04/21 11:07:17;;;;;;;0.20;0.20;;;19.90;73.30;;;;;;4961883;28;20173;-73
2023/04/21 11:09:45;;;;;;;0.10;0.10;;;19.90;72.20;;;;;;4962331;28;20536;-72
2023/04/21 11:12:18;;;;;;;0.32;0.32;;;19.50;71.80;;;;;;4962183;28;20497;-72
2023/04/21 11:14:48;;;;;;;0.10;0.10;;;19.40;74.10;;;;;;4962542;28;20102;-73
2023/04/21 11:17:20;;;;;;;2.72;1.20;;;19.30;75.90;;;;;;4961756;28;20524;-72
2023/04/21 11:19:48;;;;;;;0.10;0.10;;;19.00;76.60;;;;;;4961996;28;20787;-73
2023/04/21 11:22:16;;;;;;;0.98;0.98;;;18.70;78.80;;;;;;4962676;28;20054;-73
2023/04/21 11:24:49;;;;;;;0.10;0.10;;;18.60;81.20;;;;;;4961939;28;20046;-72
2023/04/21 11:27:16;;;;;;;;;;;18.30;90.60;;;;;;4962743;28;20070;-73
2023/04/21 11:29:45;;;;;;;0.10;0.10;;;17.90;99.40;;;;;;4961757;28;19917;-83
2023/04/21 11:32:11;;;;;;;0.10;0.10;;;17.50;98.80;;;;;;4961845;28;20093;-73
2023/04/21 11:34:38;;;;;;;0.80;0.80;;;17.60;97.60;;;;;;4944441;28;20576;-75
2023/04/21 11:37:05;;;;;;;0.15;0.15;;;17.60;99.40;;;;;;4961735;28;20074;-71
2023/04/21 11:39:31;;;;;;;0.20;0.20;;;17.50;99.90;;;;;;4961540;28;20038;-73
2023/04/21 11:41:57;;;;;;;0.10;0.10;;;17.70;99.90;;;;;;4961683;28;20506;-76
2023/04/21 11:44:40;;;;;;;0.30;0.30;;;17.70;99.90;;;;;;4961356;28;20023;-72
2023/04/21 11:47:17;;;;;;;0.57;0.57;;;17.70;99.90;;;;;;4961156;28;20030;-75
2023/04/21 11:49:44;;;;;;;0.57;0.57;;;17.80;99.90;;;;;;4961410;28;20046;-72
2023/04/21 11:52:10;;;;;;;0.38;0.38;;;17.80;98.50;;;;;;4961182;28;20033;-73
2023/04/21 11:54:37;;;;;;;0.10;0.10;;;17.90;99.90;;;;;;4961245;28;20026;-74
2023/04/21 11:57:05;;;;;;;0.32;0.32;;;17.80;99.90;;;;;;4961274;28;20492;-73
2023/04/21 11:59:31;;;;;;;0.10;0.10;;;17.80;99.90;;;;;;4960941;28;20046;-76
2023/04/21 12:01:56;;;;;;;0.30;0.30;;;17.70;99.90;;;;;;4960640;28;20308;-76
2023/04/21 12:04:24;;;;;;;0.10;0.10;;;17.80;99.40;;;;;;4961205;28;20090;-78
2023/04/21 12:07:01;;;;;;;0.20;0.20;;;17.90;99.10;;;;;;4960258;28;20098;-73
2023/04/21 12:09:28;;;;;;;0.35;0.35;;;18.00;98.60;;;;;;4961044;28;20045;-74
2023/04/21 12:11:57;;;;;;;0.30;0.30;;;17.30;99.40;;;;;;4960661;28;20425;-74
2023/04/21 12:14:25;;;;;;;0.10;0.10;;;15.30;99.60;;;;;;4959661;28;20027;-74
2023/04/21 12:16:54;;;;;;;0.10;0.10;;;18.00;98.20;;;;;;4960684;28;20024;-75
2023/04/21 12:19:25;;;;;;;0.30;0.30;;;18.20;98.50;;;;;;4959938;28;20525;-73
2023/04/21 12:21:57;;;;;;;0.10;0.10;;;18.60;97.80;;;;;;4960900;28;20039;-73
2023/04/21 12:24:23;;;;;;;0.10;0.10;;;19.10;96.30;;;;;;4960532;28;20030;-71
2023/04/21 12:26:49;;;;;;;0.10;0.10;;;19.60;93.40;;;;;;4959647;28;20038;-73
2023/04/21 12:29:15;;;;;;;0.10;0.10;;;19.70;93.70;;;;;;4959543;28;20129;-71
2023/04/21 12:31:41;;;;;;;0.68;0.68;;;20.00;90.20;;;;;;4961467;28;20210;-72
2023/04/21 12:34:06;;;;;;;0.10;0.10;;;20.10;86.10;;;;;;4961276;28;20034;-73
2023/04/21 12:36:32;;;;;;;0.10;0.10;;;19.80;78.20;;;;;;4943604;28;20029;-75
2023/04/21 12:38:58;;;;;;;0.10;0.10;;;19.90;79.30;;;;;;4961761;28;20027;-73
2023/04/21 12:41:24;;;;;;;0.10;0.10;;;20.10;78.60;;;;;;4961073;28;20474;-75
2023/04/21 12:43:50;;;;;;;0.10;0.10;;;20.30;74.20;;;;;;4960358;28;20105;-74
2023/04/21 12:46:16;;;;;;;0.17;0.17;;;21.00;73.50;;;;;;4960068;28;20216;-73
2023/04/21 12:48:43;;;;;;;0.10;0.10;;;21.60;73.30;;;;;;4960199;28;20530;-77
2023/04/21 12:51:08;;;;;;;0.10;0.10;;;22.50;74.70;;;;;;4960559;28;20508;-73
2023/04/21 12:53:35;;;;;;;0.10;0.10;;;23.50;67.70;;;;;;4960117;28;20057;-75